sensor_id;sensor_type;location;lat;lon;timestamp;temperature;humidity
41294;DHT22;27037;52.010;4.446;2022-12-26T00:00:26;9.50;99.90
41294;DHT22;27037;52.010;4.446;2022-12-26T00:02:52;9.50;99.90
41294;DHT22;27037;52.010;4.446;2022-12-26T00:05:18;9.50;99.90
41294;DHT22;27037;52.010;4.446;2022-12-26T00:07:43;9.50;99.90
41294;DHT22;27037;52.010;4.446;2022-12-26T00:10:12;9.60;99.90
41294;DHT22;27037;52.010;4.446;2022-12-26T00:12:38;9.50;99.90
41294;DHT22;27037;52.010;4.446;2022-12-26T00:15:04;9.60;99.90
41294;DHT22;27037;52.010;4.446;2022-12-26T00:17:29;9.50;99.90
41294;DHT22;27037;52.010;4.446;2022-12-26T00:19:55;9.60;99.90
41294;DHT22;27037;52.010;4.446;2022-12-26T00:22:20;9.50;99.90
41294;DHT22;27037;52.010;4.446;2022-12-26T00:24:46;9.50;99.90
41294;DHT22;27037;52.010;4.446;2022-12-26T00:27:12;9.60;99.90
41294;DHT22;27037;52.010;4.446;2022-12-26T00:29:37;9.50;99.90
41294;DHT22;27037;52.010;4.446;2022-12-26T00:32:03;9.50;99.90
41294;DHT22;27037;52.010;4.446;2022-12-26T00:34:29;9.50;99.90
41294;DHT22;27037;52.010;4.446;2022-12-26T00:36:54;9.50;99.90
41294;DHT22;27037;52.010;4.446;2022-12-26T00:39:20;9.50;99.90
41294;DHT22;27037;52.010;4.446;2022-12-26T00:41:45;9.50;99.90
41294;DHT22;27037;52.010;4.446;2022-12-26T00:44:11;9.50;99.90
41294;DHT22;27037;52.010;4.446;2022-12-26T00:46:37;9.50;99.90
41294;DHT22;27037;52.010;4.446;2022-12-26T00:49:02;9.50;99.90
41294;DHT22;27037;52.010;4.446;2022-12-26T00:51:29;9.50;99.90
41294;DHT22;27037;52.010;4.446;2022-12-26T00:53:55;9.50;99.90
41294;DHT22;27037;52.010;4.446;2022-12-26T00:56:20;9.50;99.90
41294;DHT22;27037;52.010;4.446;2022-12-26T00:58:46;9.40;99.90
41294;DHT22;27037;52.010;4.446;2022-12-26T01:01:17;9.40;99.90
41294;DHT22;27037;52.010;4.446;2022-12-26T01:03:44;9.40;99.90
41294;DHT22;27037;52.010;4.446;2022-12-26T01:06:10;9.40;99.90
41294;DHT22;27037;52.010;4.446;2022-12-26T01:08:36;9.40;99.90
41294;DHT22;27037;52.010;4.446;2022-12-26T01:11:10;9.40;99.90
41294;DHT22;27037;52.010;4.446;2022-12-26T01:13:36;9.40;99.90
41294;DHT22;27037;52.010;4.446;2022-12-26T01:16:03;9.40;99.90
41294;DHT22;27037;52.010;4.446;2022-12-26T01:18:29;9.40;99.90
41294;DHT22;27037;52.010;4.446;2022-12-26T01:21:06;9.40;99.90
41294;DHT22;27037;52.010;4.446;2022-12-26T01:23:33;9.40;99.90
41294;DHT22;27037;52.010;4.446;2022-12-26T01:25:58;9.50;99.90
41294;DHT22;27037;52.010;4.446;2022-12-26T01:28:24;9.50;99.90
41294;DHT22;27037;52.010;4.446;2022-12-26T01:30:49;9.50;99.90
41294;DHT22;27037;52.010;4.446;2022-12-26T01:33:15;9.50;99.90
41294;DHT22;27037;52.010;4.446;2022-12-26T01:35:48;9.50;99.90
41294;DHT22;27037;52.010;4.446;2022-12-26T01:38:14;9.50;99.90
41294;DHT22;27037;52.010;4.446;2022-12-26T01:40:42;9.50;99.90
41294;DHT22;27037;52.010;4.446;2022-12-26T01:43:10;9.50;99.90
41294;DHT22;27037;52.010;4.446;2022-12-26T01:45:36;9.50;99.90
41294;DHT22;27037;52.010;4.446;2022-12-26T01:48:24;9.50;99.90
41294;DHT22;27037;52.010;4.446;2022-12-26T01:51:02;9.50;99.90
41294;DHT22;27037;52.010;4.446;2022-12-26T01:53:39;9.50;99.90
41294;DHT22;27037;52.010;4.446;2022-12-26T01:56:34;9.60;99.90
41294;DHT22;27037;52.010;4.446;2022-12-26T01:59:02;9.60;99.90
41294;DHT22;27037;52.010;4.446;2022-12-26T02:01:32;9.60;99.90
41294;DHT22;27037;52.010;4.446;2022-12-26T02:04:02;9.60;99.90
41294;DHT22;27037;52.010;4.446;2022-12-26T02:06:48;9.60;99.90
41294;DHT22;27037;52.010;4.446;2022-12-26T02:09:15;9.60;99.90
41294;DHT22;27037;52.010;4.446;2022-12-26T02:11:47;9.60;99.90
41294;DHT22;27037;52.010;4.446;2022-12-26T02:14:14;9.60;99.90
41294;DHT22;27037;52.010;4.446;2022-12-26T02:16:39;9.60;99.90
41294;DHT22;27037;52.010;4.446;2022-12-26T02:19:12;9.60;99.90
41294;DHT22;27037;52.010;4.446;2022-12-26T02:24:48;9.60;99.90
41294;DHT22;27037;52.010;4.446;2022-12-26T02:41:46;9.60;99.90
41294;DHT22;27037;52.010;4.446;2022-12-26T02:53:17;9.40;99.90
41294;DHT22;27037;52.010;4.446;2022-12-26T02:56:12;9.40;99.90
41294;DHT22;27037;52.010;4.446;2022-12-26T02:59:03;9.30;99.90
41294;DHT22;27037;52.010;4.446;2022-12-26T03:01:50;9.30;99.90
41294;DHT22;27037;52.010;4.446;2022-12-26T03:04:39;9.20;99.90
41294;DHT22;27037;52.010;4.446;2022-12-26T03:07:32;9.20;99.90
41294;DHT22;27037;52.010;4.446;2022-12-26T03:10:21;9.20;99.90
41294;DHT22;27037;52.010;4.446;2022-12-26T03:13:12;9.20;99.90
41294;DHT22;27037;52.010;4.446;2022-12-26T03:18:36;9.20;99.90
41294;DHT22;27037;52.010;4.446;2022-12-26T03:21:04;9.20;99.90
41294;DHT22;27037;52.010;4.446;2022-12-26T03:23:31;9.20;99.90
41294;DHT22;27037;52.010;4.446;2022-12-26T03:26:00;9.20;99.90
41294;DHT22;27037;52.010;4.446;2022-12-26T03:28:47;9.20;99.90
41294;DHT22;27037;52.010;4.446;2022-12-26T03:31:14;9.10;99.90
41294;DHT22;27037;52.010;4.446;2022-12-26T03:33:42;9.10;99.90
41294;DHT22;27037;52.010;4.446;2022-12-26T03:39:12;9.10;99.90
41294;DHT22;27037;52.010;4.446;2022-12-26T03:50:28;9.10;99.90
41294;DHT22;27037;52.010;4.446;2022-12-26T03:53:30;9.10;99.90
41294;DHT22;27037;52.010;4.446;2022-12-26T03:56:21;9.10;99.90
41294;DHT22;27037;52.010;4.446;2022-12-26T03:59:12;9.10;99.90
41294;DHT22;27037;52.010;4.446;2022-12-26T04:02:03;9.10;99.90
41294;DHT22;27037;52.010;4.446;2022-12-26T04:04:48;9.10;99.90
41294;DHT22;27037;52.010;4.446;2022-12-26T04:07:45;9.10;99.90
41294;DHT22;27037;52.010;4.446;2022-12-26T04:10:39;9.10;99.90
41294;DHT22;27037;52.010;4.446;2022-12-26T04:19:53;9.10;99.90
41294;DHT22;27037;52.010;4.446;2022-12-26T04:22:38;9.10;99.90
41294;DHT22;27037;52.010;4.446;2022-12-26T04:25:27;9.10;99.90
41294;DHT22;27037;52.010;4.446;2022-12-26T04:28:12;9.10;99.90
41294;DHT22;27037;52.010;4.446;2022-12-26T04:31:06;9.10;99.90
41294;DHT22;27037;52.010;4.446;2022-12-26T04:34:00;9.10;99.90
41294;DHT22;27037;52.010;4.446;2022-12-26T04:36:57;9.10;99.90
41294;DHT22;27037;52.010;4.446;2022-12-26T04:39:45;9.10;99.90
41294;DHT22;27037;52.010;4.446;2022-12-26T04:42:31;9.10;99.90
41294;DHT22;27037;52.010;4.446;2022-12-26T04:45:16;9.10;99.90
41294;DHT22;27037;52.010;4.446;2022-12-26T04:47:43;9.00;99.90
41294;DHT22;27037;52.010;4.446;2022-12-26T04:50:29;9.10;99.90
41294;DHT22;27037;52.010;4.446;2022-12-26T04:52:55;9.10;99.90
41294;DHT22;27037;52.010;4.446;2022-12-26T04:55:29;9.10;99.90
41294;DHT22;27037;52.010;4.446;2022-12-26T04:57:55;9.10;99.90
41294;DHT22;27037;52.010;4.446;2022-12-26T05:00:22;9.10;99.90
41294;DHT22;27037;52.010;4.446;2022-12-26T05:02:50;9.10;99.90
41294;DHT22;27037;52.010;4.446;2022-12-26T05:05:39;9.10;99.90
41294;DHT22;27037;52.010;4.446;2022-12-26T05:08:29;9.10;99.90
41294;DHT22;27037;52.010;4.446;2022-12-26T05:11:15;9.10;99.90
41294;DHT22;27037;52.010;4.446;2022-12-26T05:13:41;9.10;99.90
41294;DHT22;27037;52.010;4.446;2022-12-26T05:16:06;9.20;99.90
41294;DHT22;27037;52.010;4.446;2022-12-26T05:18:51;9.20;99.90
41294;DHT22;27037;52.010;4.446;2022-12-26T05:21:35;9.20;99.90
41294;DHT22;27037;52.010;4.446;2022-12-26T05:24:20;9.30;99.90
41294;DHT22;27037;52.010;4.446;2022-12-26T05:27:04;9.30;99.90
41294;DHT22;27037;52.010;4.446;2022-12-26T05:29:53;9.30;99.90
41294;DHT22;27037;52.010;4.446;2022-12-26T05:32:18;9.40;99.90
41294;DHT22;27037;52.010;4.446;2022-12-26T05:35:03;9.40;99.90
41294;DHT22;27037;52.010;4.446;2022-12-26T05:37:28;9.40;99.90
41294;DHT22;27037;52.010;4.446;2022-12-26T05:39:54;9.40;99.90
41294;DHT22;27037;52.010;4.446;2022-12-26T05:42:19;9.40;99.90
41294;DHT22;27037;52.010;4.446;2022-12-26T05:44:45;9.40;99.90
41294;DHT22;27037;52.010;4.446;2022-12-26T05:47:12;9.40;99.90
41294;DHT22;27037;52.010;4.446;2022-12-26T05:49:37;9.40;99.90
41294;DHT22;27037;52.010;4.446;2022-12-26T05:52:03;9.40;99.90
41294;DHT22;27037;52.010;4.446;2022-12-26T05:54:29;9.40;99.90
41294;DHT22;27037;52.010;4.446;2022-12-26T05:56:54;9.40;99.90
41294;DHT22;27037;52.010;4.446;2022-12-26T05:59:20;9.40;99.90
41294;DHT22;27037;52.010;4.446;2022-12-26T06:01:45;9.40;99.90
41294;DHT22;27037;52.010;4.446;2022-12-26T06:04:11;9.30;99.90
41294;DHT22;27037;52.010;4.446;2022-12-26T06:06:36;9.30;99.90
41294;DHT22;27037;52.010;4.446;2022-12-26T06:09:02;9.30;99.90
41294;DHT22;27037;52.010;4.446;2022-12-26T06:11:28;9.30;99.90
41294;DHT22;27037;52.010;4.446;2022-12-26T06:13:55;9.30;99.90
41294;DHT22;27037;52.010;4.446;2022-12-26T06:16:20;9.30;99.90
41294;DHT22;27037;52.010;4.446;2022-12-26T06:18:46;9.30;99.90
41294;DHT22;27037;52.010;4.446;2022-12-26T06:21:15;9.30;99.90
41294;DHT22;27037;52.010;4.446;2022-12-26T06:23:42;9.30;99.90
41294;DHT22;27037;52.010;4.446;2022-12-26T06:26:08;9.30;99.90
41294;DHT22;27037;52.010;4.446;2022-12-26T06:28:35;9.30;99.90
41294;DHT22;27037;52.010;4.446;2022-12-26T06:31:02;9.40;99.90
41294;DHT22;27037;52.010;4.446;2022-12-26T06:33:29;9.40;99.90
41294;DHT22;27037;52.010;4.446;2022-12-26T06:36:22;9.40;99.90
41294;DHT22;27037;52.010;4.446;2022-12-26T06:38:46;9.40;99.90
41294;DHT22;27037;52.010;4.446;2022-12-26T06:41:14;9.40;99.90
41294;DHT22;27037;52.010;4.446;2022-12-26T06:43:40;9.50;99.90
41294;DHT22;27037;52.010;4.446;2022-12-26T06:46:08;9.50;99.90
41294;DHT22;27037;52.010;4.446;2022-12-26T06:48:34;9.40;99.90
41294;DHT22;27037;52.010;4.446;2022-12-26T06:51:10;9.50;99.90
41294;DHT22;27037;52.010;4.446;2022-12-26T06:53:36;9.40;99.90
41294;DHT22;27037;52.010;4.446;2022-12-26T06:58:32;9.50;99.90
41294;DHT22;27037;52.010;4.446;2022-12-26T07:01:12;9.50;99.90
41294;DHT22;27037;52.010;4.446;2022-12-26T07:03:38;9.50;99.90
41294;DHT22;27037;52.010;4.446;2022-12-26T07:06:06;9.50;99.90
41294;DHT22;27037;52.010;4.446;2022-12-26T07:08:32;9.50;99.90
41294;DHT22;27037;52.010;4.446;2022-12-26T07:10:58;9.50;99.90
41294;DHT22;27037;52.010;4.446;2022-12-26T07:13:24;9.50;99.90
41294;DHT22;27037;52.010;4.446;2022-12-26T07:15:50;9.50;99.90
41294;DHT22;27037;52.010;4.446;2022-12-26T07:18:15;9.50;99.90
41294;DHT22;27037;52.010;4.446;2022-12-26T07:20:41;9.60;99.90
41294;DHT22;27037;52.010;4.446;2022-12-26T07:23:07;9.60;99.90
41294;DHT22;27037;52.010;4.446;2022-12-26T07:25:32;9.60;99.90
41294;DHT22;27037;52.010;4.446;2022-12-26T07:27:58;9.60;99.90
41294;DHT22;27037;52.010;4.446;2022-12-26T07:30:24;9.60;99.90
41294;DHT22;27037;52.010;4.446;2022-12-26T07:32:50;9.60;99.90
41294;DHT22;27037;52.010;4.446;2022-12-26T07:35:16;9.60;99.90
41294;DHT22;27037;52.010;4.446;2022-12-26T07:37:41;9.60;99.90
41294;DHT22;27037;52.010;4.446;2022-12-26T07:40:07;9.60;99.90
41294;DHT22;27037;52.010;4.446;2022-12-26T07:42:33;9.60;99.90
41294;DHT22;27037;52.010;4.446;2022-12-26T07:44:59;9.60;99.90
41294;DHT22;27037;52.010;4.446;2022-12-26T07:47:24;9.60;99.90
41294;DHT22;27037;52.010;4.446;2022-12-26T07:49:50;9.60;99.90
41294;DHT22;27037;52.010;4.446;2022-12-26T07:52:16;9.60;99.90
41294;DHT22;27037;52.010;4.446;2022-12-26T07:54:42;9.60;99.90
41294;DHT22;27037;52.010;4.446;2022-12-26T07:57:07;9.60;99.90
41294;DHT22;27037;52.010;4.446;2022-12-26T07:59:33;9.60;99.90
41294;DHT22;27037;52.010;4.446;2022-12-26T08:01:59;9.60;99.90
41294;DHT22;27037;52.010;4.446;2022-12-26T08:04:27;9.60;99.90
41294;DHT22;27037;52.010;4.446;2022-12-26T08:06:52;9.60;99.90
41294;DHT22;27037;52.010;4.446;2022-12-26T08:09:18;9.60;99.90
41294;DHT22;27037;52.010;4.446;2022-12-26T08:11:43;9.60;99.90
41294;DHT22;27037;52.010;4.446;2022-12-26T08:14:11;9.50;99.90
41294;DHT22;27037;52.010;4.446;2022-12-26T08:16:36;9.50;99.90
41294;DHT22;27037;52.010;4.446;2022-12-26T08:19:02;9.50;99.90
41294;DHT22;27037;52.010;4.446;2022-12-26T08:21:30;9.50;99.90
41294;DHT22;27037;52.010;4.446;2022-12-26T08:23:56;9.40;99.90
41294;DHT22;27037;52.010;4.446;2022-12-26T08:26:21;9.40;99.90
41294;DHT22;27037;52.010;4.446;2022-12-26T08:28:49;9.40;99.90
41294;DHT22;27037;52.010;4.446;2022-12-26T08:31:16;9.30;99.90
41294;DHT22;27037;52.010;4.446;2022-12-26T08:33:42;9.30;99.90
41294;DHT22;27037;52.010;4.446;2022-12-26T08:36:09;9.20;99.90
41294;DHT22;27037;52.010;4.446;2022-12-26T08:38:37;9.20;99.90
41294;DHT22;27037;52.010;4.446;2022-12-26T08:41:04;9.20;99.90
41294;DHT22;27037;52.010;4.446;2022-12-26T08:43:29;9.20;99.90
41294;DHT22;27037;52.010;4.446;2022-12-26T08:46:04;9.20;99.90
41294;DHT22;27037;52.010;4.446;2022-12-26T08:48:30;9.10;99.90
41294;DHT22;27037;52.010;4.446;2022-12-26T08:51:01;9.10;99.90
41294;DHT22;27037;52.010;4.446;2022-12-26T08:53:29;9.10;99.90
41294;DHT22;27037;52.010;4.446;2022-12-26T08:55:55;9.10;99.90
41294;DHT22;27037;52.010;4.446;2022-12-26T08:58:21;9.10;99.90
41294;DHT22;27037;52.010;4.446;2022-12-26T09:00:47;9.10;99.90
41294;DHT22;27037;52.010;4.446;2022-12-26T09:03:14;9.10;99.90
41294;DHT22;27037;52.010;4.446;2022-12-26T09:05:39;9.10;99.90
41294;DHT22;27037;52.010;4.446;2022-12-26T09:08:05;9.10;99.90
41294;DHT22;27037;52.010;4.446;2022-12-26T09:10:31;9.00;99.90
41294;DHT22;27037;52.010;4.446;2022-12-26T09:12:57;8.90;99.90
41294;DHT22;27037;52.010;4.446;2022-12-26T09:15:23;8.90;99.90
41294;DHT22;27037;52.010;4.446;2022-12-26T09:17:48;8.70;99.90
41294;DHT22;27037;52.010;4.446;2022-12-26T09:20:14;8.60;99.90
41294;DHT22;27037;52.010;4.446;2022-12-26T09:22:39;8.50;99.90
41294;DHT22;27037;52.010;4.446;2022-12-26T09:25:15;8.40;99.90
41294;DHT22;27037;52.010;4.446;2022-12-26T09:27:40;8.40;99.90
41294;DHT22;27037;52.010;4.446;2022-12-26T09:30:07;8.40;99.90
41294;DHT22;27037;52.010;4.446;2022-12-26T09:32:33;8.30;99.90
41294;DHT22;27037;52.010;4.446;2022-12-26T09:34:59;8.20;99.90
41294;DHT22;27037;52.010;4.446;2022-12-26T09:37:25;8.20;99.90
41294;DHT22;27037;52.010;4.446;2022-12-26T09:39:51;8.10;99.90
41294;DHT22;27037;52.010;4.446;2022-12-26T09:42:44;8.00;99.90
41294;DHT22;27037;52.010;4.446;2022-12-26T09:45:34;8.00;99.90
41294;DHT22;27037;52.010;4.446;2022-12-26T09:48:29;7.90;99.90
41294;DHT22;27037;52.010;4.446;2022-12-26T09:50:56;7.90;99.90
41294;DHT22;27037;52.010;4.446;2022-12-26T09:53:29;7.80;99.90
41294;DHT22;27037;52.010;4.446;2022-12-26T09:56:04;7.80;99.90
41294;DHT22;27037;52.010;4.446;2022-12-26T09:59:04;7.80;99.90
41294;DHT22;27037;52.010;4.446;2022-12-26T10:01:34;7.80;99.90
41294;DHT22;27037;52.010;4.446;2022-12-26T10:04:03;7.70;99.90
41294;DHT22;27037;52.010;4.446;2022-12-26T10:06:37;7.70;99.90
41294;DHT22;27037;52.010;4.446;2022-12-26T10:26:03;7.70;99.90
41294;DHT22;27037;52.010;4.446;2022-12-26T10:31:12;7.70;99.90
41294;DHT22;27037;52.010;4.446;2022-12-26T10:36:42;7.70;99.90
41294;DHT22;27037;52.010;4.446;2022-12-26T10:39:43;7.70;99.90
41294;DHT22;27037;52.010;4.446;2022-12-26T10:44:51;7.70;99.90
41294;DHT22;27037;52.010;4.446;2022-12-26T10:47:37;7.70;99.90
41294;DHT22;27037;52.010;4.446;2022-12-26T10:50:04;7.70;99.90
41294;DHT22;27037;52.010;4.446;2022-12-26T10:52:33;7.60;99.90
41294;DHT22;27037;52.010;4.446;2022-12-26T10:55:00;7.60;99.90
41294;DHT22;27037;52.010;4.446;2022-12-26T10:57:33;7.60;99.90
41294;DHT22;27037;52.010;4.446;2022-12-26T11:00:00;7.60;99.90
41294;DHT22;27037;52.010;4.446;2022-12-26T11:02:30;7.70;99.90
41294;DHT22;27037;52.010;4.446;2022-12-26T11:05:09;7.80;99.90
41294;DHT22;27037;52.010;4.446;2022-12-26T11:07:45;7.90;99.90
41294;DHT22;27037;52.010;4.446;2022-12-26T11:10:25;8.00;99.90
41294;DHT22;27037;52.010;4.446;2022-12-26T11:12:54;8.00;99.90
41294;DHT22;27037;52.010;4.446;2022-12-26T11:15:38;8.00;99.90
41294;DHT22;27037;52.010;4.446;2022-12-26T11:20:42;8.00;99.90
41294;DHT22;27037;52.010;4.446;2022-12-26T11:25:53;7.90;99.90
41294;DHT22;27037;52.010;4.446;2022-12-26T11:28:40;7.90;99.90
41294;DHT22;27037;52.010;4.446;2022-12-26T11:31:06;7.90;99.90
41294;DHT22;27037;52.010;4.446;2022-12-26T11:33:43;7.80;99.90
41294;DHT22;27037;52.010;4.446;2022-12-26T11:36:22;7.80;99.90
41294;DHT22;27037;52.010;4.446;2022-12-26T11:38:59;7.90;99.90
41294;DHT22;27037;52.010;4.446;2022-12-26T11:41:31;7.90;99.90
41294;DHT22;27037;52.010;4.446;2022-12-26T11:44:25;7.90;99.90
41294;DHT22;27037;52.010;4.446;2022-12-26T11:47:11;8.00;99.90
41294;DHT22;27037;52.010;4.446;2022-12-26T11:49:44;8.00;99.90
41294;DHT22;27037;52.010;4.446;2022-12-26T11:52:40;7.90;99.90
41294;DHT22;27037;52.010;4.446;2022-12-26T12:03:00;7.60;99.90
41294;DHT22;27037;52.010;4.446;2022-12-26T12:19:15;7.30;99.90
41294;DHT22;27037;52.010;4.446;2022-12-26T12:24:34;7.30;99.90
41294;DHT22;27037;52.010;4.446;2022-12-26T12:27:12;7.30;99.90
41294;DHT22;27037;52.010;4.446;2022-12-26T12:29:52;7.20;99.90
41294;DHT22;27037;52.010;4.446;2022-12-26T12:35:29;7.40;99.90
41294;DHT22;27037;52.010;4.446;2022-12-26T12:38:17;7.40;99.90
41294;DHT22;27037;52.010;4.446;2022-12-26T12:47:02;7.40;99.90
41294;DHT22;27037;52.010;4.446;2022-12-26T12:49:34;7.40;99.90
41294;DHT22;27037;52.010;4.446;2022-12-26T13:02:27;7.50;99.90
41294;DHT22;27037;52.010;4.446;2022-12-26T13:05:17;7.60;99.90
41294;DHT22;27037;52.010;4.446;2022-12-26T13:07:48;7.60;99.90
41294;DHT22;27037;52.010;4.446;2022-12-26T13:10:27;7.60;99.90
41294;DHT22;27037;52.010;4.446;2022-12-26T13:12:55;7.60;99.90
41294;DHT22;27037;52.010;4.446;2022-12-26T13:15:33;7.60;99.90
41294;DHT22;27037;52.010;4.446;2022-12-26T13:18:11;7.60;99.90
41294;DHT22;27037;52.010;4.446;2022-12-26T13:21:15;7.70;99.90
41294;DHT22;27037;52.010;4.446;2022-12-26T13:26:33;7.60;99.90
41294;DHT22;27037;52.010;4.446;2022-12-26T13:29:28;7.60;99.90
41294;DHT22;27037;52.010;4.446;2022-12-26T13:31:49;7.60;99.90
41294;DHT22;27037;52.010;4.446;2022-12-26T13:34:17;7.50;99.90
41294;DHT22;27037;52.010;4.446;2022-12-26T13:41:50;7.60;99.90
41294;DHT22;27037;52.010;4.446;2022-12-26T13:44:35;7.60;99.90
41294;DHT22;27037;52.010;4.446;2022-12-26T13:47:01;7.50;99.90
41294;DHT22;27037;52.010;4.446;2022-12-26T13:49:37;7.50;99.90
41294;DHT22;27037;52.010;4.446;2022-12-26T14:00:05;7.40;99.90
41294;DHT22;27037;52.010;4.446;2022-12-26T14:05:26;7.40;99.90
41294;DHT22;27037;52.010;4.446;2022-12-26T14:18:57;7.40;99.90
41294;DHT22;27037;52.010;4.446;2022-12-26T14:21:32;7.30;99.90
41294;DHT22;27037;52.010;4.446;2022-12-26T14:29:30;7.30;99.90
41294;DHT22;27037;52.010;4.446;2022-12-26T14:35:17;7.30;99.90
41294;DHT22;27037;52.010;4.446;2022-12-26T14:40:57;7.30;99.90
41294;DHT22;27037;52.010;4.446;2022-12-26T14:43:39;7.30;99.90
41294;DHT22;27037;52.010;4.446;2022-12-26T14:49:16;7.20;99.90
41294;DHT22;27037;52.010;4.446;2022-12-26T14:51:42;7.20;99.90
41294;DHT22;27037;52.010;4.446;2022-12-26T14:54:32;7.20;99.90
41294;DHT22;27037;52.010;4.446;2022-12-26T14:56:59;7.10;99.90
41294;DHT22;27037;52.010;4.446;2022-12-26T14:59:30;7.10;99.90
41294;DHT22;27037;52.010;4.446;2022-12-26T15:02:30;7.10;99.90
41294;DHT22;27037;52.010;4.446;2022-12-26T15:05:21;7.10;99.90
41294;DHT22;27037;52.010;4.446;2022-12-26T15:39:20;6.80;99.90
41294;DHT22;27037;52.010;4.446;2022-12-26T15:47:46;6.70;99.90
41294;DHT22;27037;52.010;4.446;2022-12-26T15:53:17;6.70;99.90
41294;DHT22;27037;52.010;4.446;2022-12-26T16:01:39;6.60;99.90
41294;DHT22;27037;52.010;4.446;2022-12-26T16:04:31;6.60;99.90
41294;DHT22;27037;52.010;4.446;2022-12-26T16:09:52;6.60;99.90
41294;DHT22;27037;52.010;4.446;2022-12-26T16:14:48;6.50;99.90
41294;DHT22;27037;52.010;4.446;2022-12-26T16:19:41;6.50;99.90
41294;DHT22;27037;52.010;4.446;2022-12-26T16:22:29;6.40;99.90
41294;DHT22;27037;52.010;4.446;2022-12-26T16:25:16;6.40;99.90
41294;DHT22;27037;52.010;4.446;2022-12-26T16:27:43;6.40;99.90
41294;DHT22;27037;52.010;4.446;2022-12-26T16:30:22;6.40;99.90
41294;DHT22;27037;52.010;4.446;2022-12-26T16:32:49;6.30;99.90
41294;DHT22;27037;52.010;4.446;2022-12-26T16:35:21;6.30;99.90
41294;DHT22;27037;52.010;4.446;2022-12-26T16:37:50;6.30;99.90
41294;DHT22;27037;52.010;4.446;2022-12-26T16:40:19;6.30;99.90
41294;DHT22;27037;52.010;4.446;2022-12-26T16:45:27;6.30;99.90
41294;DHT22;27037;52.010;4.446;2022-12-26T16:47:55;6.30;99.90
41294;DHT22;27037;52.010;4.446;2022-12-26T16:50:26;6.20;99.90
41294;DHT22;27037;52.010;4.446;2022-12-26T16:53:07;6.20;99.90
41294;DHT22;27037;52.010;4.446;2022-12-26T16:55:39;6.30;99.90
41294;DHT22;27037;52.010;4.446;2022-12-26T16:58:28;6.30;99.90
41294;DHT22;27037;52.010;4.446;2022-12-26T17:01:13;6.30;99.90
41294;DHT22;27037;52.010;4.446;2022-12-26T17:04:36;6.30;99.90
41294;DHT22;27037;52.010;4.446;2022-12-26T17:06:59;6.30;99.90
41294;DHT22;27037;52.010;4.446;2022-12-26T17:09:27;6.30;99.90
41294;DHT22;27037;52.010;4.446;2022-12-26T17:11:56;6.30;99.90
41294;DHT22;27037;52.010;4.446;2022-12-26T17:14:33;6.30;99.90
41294;DHT22;27037;52.010;4.446;2022-12-26T17:17:02;6.40;99.90
41294;DHT22;27037;52.010;4.446;2022-12-26T17:19:31;6.30;99.90
41294;DHT22;27037;52.010;4.446;2022-12-26T17:22:29;6.30;99.90
41294;DHT22;27037;52.010;4.446;2022-12-26T17:27:48;6.20;99.90
41294;DHT22;27037;52.010;4.446;2022-12-26T17:30:26;6.20;99.90
41294;DHT22;27037;52.010;4.446;2022-12-26T17:32:53;6.20;99.90
41294;DHT22;27037;52.010;4.446;2022-12-26T17:35:22;6.20;99.90
41294;DHT22;27037;52.010;4.446;2022-12-26T17:37:53;6.30;99.90
41294;DHT22;27037;52.010;4.446;2022-12-26T17:40:23;6.30;99.90
41294;DHT22;27037;52.010;4.446;2022-12-26T17:43:03;6.30;99.90
41294;DHT22;27037;52.010;4.446;2022-12-26T17:45:29;6.30;99.90
41294;DHT22;27037;52.010;4.446;2022-12-26T17:47:56;6.30;99.90
41294;DHT22;27037;52.010;4.446;2022-12-26T17:50:23;6.30;99.90
41294;DHT22;27037;52.010;4.446;2022-12-26T17:52:50;6.30;99.90
41294;DHT22;27037;52.010;4.446;2022-12-26T17:55:24;6.40;99.90
41294;DHT22;27037;52.010;4.446;2022-12-26T17:57:51;6.40;99.90
41294;DHT22;27037;52.010;4.446;2022-12-26T18:00:23;6.40;99.90
41294;DHT22;27037;52.010;4.446;2022-12-26T18:02:50;6.40;99.90
41294;DHT22;27037;52.010;4.446;2022-12-26T18:05:16;6.40;99.90
41294;DHT22;27037;52.010;4.446;2022-12-26T18:07:43;6.50;99.90
41294;DHT22;27037;52.010;4.446;2022-12-26T18:10:18;6.50;99.90
41294;DHT22;27037;52.010;4.446;2022-12-26T18:12:44;6.60;99.90
41294;DHT22;27037;52.010;4.446;2022-12-26T18:15:10;6.60;99.90
41294;DHT22;27037;52.010;4.446;2022-12-26T18:17:35;6.60;99.90
41294;DHT22;27037;52.010;4.446;2022-12-26T18:20:02;6.70;99.90
41294;DHT22;27037;52.010;4.446;2022-12-26T18:22:28;6.70;99.90
41294;DHT22;27037;52.010;4.446;2022-12-26T18:24:54;6.80;99.90
41294;DHT22;27037;52.010;4.446;2022-12-26T18:27:29;6.80;99.90
41294;DHT22;27037;52.010;4.446;2022-12-26T18:29:56;6.80;99.90
41294;DHT22;27037;52.010;4.446;2022-12-26T18:32:32;6.90;99.90
41294;DHT22;27037;52.010;4.446;2022-12-26T18:34:59;6.90;99.90
41294;DHT22;27037;52.010;4.446;2022-12-26T18:37:27;6.90;99.90
41294;DHT22;27037;52.010;4.446;2022-12-26T18:39:53;6.90;99.90
41294;DHT22;27037;52.010;4.446;2022-12-26T18:42:19;6.90;99.90
41294;DHT22;27037;52.010;4.446;2022-12-26T18:44:45;7.00;99.90
41294;DHT22;27037;52.010;4.446;2022-12-26T18:47:16;6.90;99.90
41294;DHT22;27037;52.010;4.446;2022-12-26T18:49:42;6.90;99.90
41294;DHT22;27037;52.010;4.446;2022-12-26T18:52:09;6.90;99.90
41294;DHT22;27037;52.010;4.446;2022-12-26T18:54:35;6.90;99.90
41294;DHT22;27037;52.010;4.446;2022-12-26T18:57:02;6.90;99.90
41294;DHT22;27037;52.010;4.446;2022-12-26T18:59:28;6.90;99.90
41294;DHT22;27037;52.010;4.446;2022-12-26T19:01:53;6.90;99.90
41294;DHT22;27037;52.010;4.446;2022-12-26T19:04:19;6.90;99.90
41294;DHT22;27037;52.010;4.446;2022-12-26T19:06:45;6.90;99.90
41294;DHT22;27037;52.010;4.446;2022-12-26T19:09:11;7.00;99.90
41294;DHT22;27037;52.010;4.446;2022-12-26T19:11:38;7.00;99.90
41294;DHT22;27037;52.010;4.446;2022-12-26T19:14:04;7.00;99.90
41294;DHT22;27037;52.010;4.446;2022-12-26T19:16:41;7.00;99.90
41294;DHT22;27037;52.010;4.446;2022-12-26T19:19:07;7.10;99.90
41294;DHT22;27037;52.010;4.446;2022-12-26T19:21:32;7.10;99.90
41294;DHT22;27037;52.010;4.446;2022-12-26T19:23:58;7.10;99.90
41294;DHT22;27037;52.010;4.446;2022-12-26T19:26:23;7.10;99.90
41294;DHT22;27037;52.010;4.446;2022-12-26T19:28:50;7.10;99.90
41294;DHT22;27037;52.010;4.446;2022-12-26T19:31:16;7.10;99.90
41294;DHT22;27037;52.010;4.446;2022-12-26T19:33:42;7.10;99.90
41294;DHT22;27037;52.010;4.446;2022-12-26T19:36:08;7.10;99.90
41294;DHT22;27037;52.010;4.446;2022-12-26T19:38:34;7.10;99.90
41294;DHT22;27037;52.010;4.446;2022-12-26T19:41:12;7.10;99.90
41294;DHT22;27037;52.010;4.446;2022-12-26T19:43:38;7.10;99.90
41294;DHT22;27037;52.010;4.446;2022-12-26T19:46:10;7.20;99.90
41294;DHT22;27037;52.010;4.446;2022-12-26T19:48:36;7.20;99.90
41294;DHT22;27037;52.010;4.446;2022-12-26T19:51:08;7.20;99.90
41294;DHT22;27037;52.010;4.446;2022-12-26T19:53:36;7.20;99.90
41294;DHT22;27037;52.010;4.446;2022-12-26T19:56:12;7.20;99.90
41294;DHT22;27037;52.010;4.446;2022-12-26T19:58:38;7.20;99.90
41294;DHT22;27037;52.010;4.446;2022-12-26T20:01:08;7.30;99.90
41294;DHT22;27037;52.010;4.446;2022-12-26T20:03:35;7.30;99.90